createdAt,value
2019-03-28T00:00:52.234Z,4.90
2019-03-28T00:03:20.953Z,4.90
2019-03-28T00:05:49.663Z,4.90
2019-03-28T00:08:18.121Z,5.00
2019-03-28T00:10:46.854Z,5.00
2019-03-28T00:13:15.579Z,5.00
2019-03-28T00:15:44.017Z,5.10
2019-03-28T00:18:12.477Z,5.10
2019-03-28T00:20:40.920Z,5.10
2019-03-28T00:23:11.303Z,5.20
2019-03-28T00:25:39.799Z,5.10
2019-03-28T00:28:08.437Z,5.20
2019-03-28T00:30:36.883Z,5.20
2019-03-28T00:33:05.329Z,5.30
2019-03-28T00:35:33.789Z,5.40
2019-03-28T00:38:02.229Z,5.40
2019-03-28T00:40:30.684Z,5.40
2019-03-28T00:42:59.386Z,5.40
2019-03-28T00:45:28.193Z,5.50
2019-03-28T00:47:56.975Z,5.50
2019-03-28T00:50:25.416Z,5.50
2019-03-28T00:52:53.868Z,5.60
2019-03-28T00:55:22.317Z,5.50
2019-03-28T00:57:51.009Z,5.60
2019-03-28T01:00:20.232Z,5.50
2019-03-28T01:02:48.683Z,5.60
2019-03-28T01:05:17.216Z,5.50
2019-03-28T01:07:46.016Z,5.50
2019-03-28T01:10:15.436Z,5.40
2019-03-28T01:12:43.896Z,5.50
2019-03-28T01:15:12.506Z,5.50
2019-03-28T01:17:40.959Z,5.50
2019-03-28T01:20:09.737Z,5.50
2019-03-28T01:22:38.219Z,5.50
2019-03-28T01:25:07.148Z,5.40
2019-03-28T01:27:35.659Z,5.40
2019-03-28T01:30:06.866Z,5.40
2019-03-28T01:32:35.312Z,5.30
2019-03-28T01:35:04.337Z,5.30
2019-03-28T01:37:32.778Z,5.30
2019-03-28T01:40:02.037Z,5.30
2019-03-28T01:42:31.148Z,5.30
2019-03-28T01:44:59.672Z,5.20
2019-03-28T01:47:28.384Z,5.10
2019-03-28T01:49:56.846Z,5.00
2019-03-28T01:52:26.211Z,4.90
2019-03-28T01:54:55.244Z,4.80
2019-03-28T01:57:24.053Z,4.90
2019-03-28T01:59:52.496Z,4.90
2019-03-28T02:02:21.425Z,4.90
2019-03-28T02:04:49.871Z,4.90
2019-03-28T02:07:18.332Z,4.80
2019-03-28T02:09:46.777Z,4.80
2019-03-28T02:12:15.522Z,4.80
2019-03-28T02:14:43.973Z,4.80
2019-03-28T02:17:12.693Z,4.80
2019-03-28T02:19:41.141Z,4.80
2019-03-28T02:22:09.841Z,4.70
2019-03-28T02:24:38.280Z,4.60
2019-03-28T02:27:06.744Z,4.60
2019-03-28T02:29:35.448Z,4.50
2019-03-28T02:32:03.883Z,4.40
2019-03-28T02:34:32.340Z,4.40
2019-03-28T02:37:00.830Z,4.30
2019-03-28T02:39:29.290Z,4.30
2019-03-28T02:41:57.981Z,4.30
2019-03-28T02:44:26.454Z,4.30
2019-03-28T02:46:54.893Z,4.30
2019-03-28T02:49:23.452Z,4.30
2019-03-28T02:51:51.932Z,4.20
2019-03-28T02:54:20.408Z,4.20
2019-03-28T02:56:50.062Z,4.20
2019-03-28T02:59:18.761Z,4.10
2019-03-28T03:01:47.478Z,4.00
2019-03-28T03:04:15.905Z,3.90
2019-03-28T03:06:44.433Z,3.90
2019-03-28T03:09:12.867Z,3.80
2019-03-28T03:11:44.380Z,3.70
2019-03-28T03:14:13.084Z,3.80
2019-03-28T03:17:05.572Z,3.70
2019-03-28T03:19:34.002Z,3.70
2019-03-28T03:22:02.961Z,3.70
2019-03-28T03:24:32.049Z,3.70
2019-03-28T03:27:00.525Z,3.70
2019-03-28T03:29:29.025Z,3.60
2019-03-28T03:31:57.471Z,3.60
2019-03-28T03:34:26.022Z,3.60
2019-03-28T03:36:54.790Z,3.50
2019-03-28T03:39:23.253Z,3.50
2019-03-28T03:41:51.704Z,3.60
2019-03-28T03:44:20.156Z,3.50
2019-03-28T03:46:48.593Z,3.50
2019-03-28T03:49:17.055Z,3.50
2019-03-28T03:51:46.648Z,3.50
2019-03-28T03:54:15.794Z,3.50
2019-03-28T03:56:44.480Z,3.60
2019-03-28T03:59:12.933Z,3.60
2019-03-28T04:01:41.700Z,3.50
2019-03-28T04:04:10.414Z,3.40
2019-03-28T04:06:38.859Z,3.40
2019-03-28T04:09:07.905Z,3.40
2019-03-28T04:11:36.357Z,3.40
2019-03-28T04:14:05.268Z,3.40
2019-03-28T04:16:33.721Z,3.30
2019-03-28T04:19:02.147Z,3.30
2019-03-28T04:21:45.897Z,3.20
2019-03-28T04:24:14.327Z,3.00
2019-03-28T04:26:42.791Z,3.00
2019-03-28T04:29:11.239Z,3.00
2019-03-28T04:31:39.776Z,3.00
2019-03-28T04:34:09.489Z,3.10
2019-03-28T04:36:38.590Z,3.10
2019-03-28T04:39:07.298Z,3.20
2019-03-28T04:41:35.738Z,3.30
2019-03-28T04:44:04.199Z,3.30
2019-03-28T04:46:32.895Z,3.30
2019-03-28T04:49:01.595Z,3.30
2019-03-28T04:51:30.032Z,3.30
2019-03-28T04:53:58.759Z,3.30
2019-03-28T04:56:27.453Z,3.20
2019-03-28T04:58:55.905Z,3.20
2019-03-28T05:01:25.462Z,3.20
2019-03-28T05:03:54.017Z,3.10
2019-03-28T05:06:22.451Z,3.00
2019-03-28T05:08:51.163Z,2.90
2019-03-28T05:11:19.607Z,2.90
2019-03-28T05:13:48.472Z,2.90
2019-03-28T05:16:16.915Z,2.90
2019-03-28T05:18:45.338Z,3.00
2019-03-28T05:21:13.788Z,2.90
2019-03-28T05:23:42.484Z,2.80
2019-03-28T05:26:10.941Z,2.70
2019-03-28T05:28:39.371Z,2.70
2019-03-28T05:31:08.395Z,2.70
2019-03-28T05:33:38.236Z,2.70
2019-03-28T05:36:06.690Z,2.70
2019-03-28T05:38:35.131Z,2.80
2019-03-28T05:41:03.846Z,2.80
2019-03-28T05:43:38.208Z,2.90
2019-03-28T05:46:18.737Z,3.00
2019-03-28T05:48:47.176Z,3.20
2019-03-28T05:51:15.771Z,3.20
2019-03-28T05:53:44.233Z,3.30
2019-03-28T05:56:12.669Z,3.30
2019-03-28T05:58:41.119Z,3.40
2019-03-28T06:01:09.786Z,3.50
2019-03-28T06:03:38.247Z,3.60
2019-03-28T06:06:06.666Z,3.60
2019-03-28T06:08:35.389Z,3.70
2019-03-28T06:11:03.834Z,3.80
2019-03-28T06:13:32.555Z,3.90
2019-03-28T06:16:00.997Z,3.90
2019-03-28T06:18:29.428Z,4.00
2019-03-28T06:20:59.547Z,4.10
2019-03-28T06:23:28.495Z,4.20
2019-03-28T06:25:56.957Z,4.30
2019-03-28T06:28:25.566Z,4.40
2019-03-28T06:30:55.857Z,4.40
2019-03-28T06:33:24.189Z,4.50
2019-03-28T06:35:52.907Z,4.60
2019-03-28T06:38:21.343Z,4.80
2019-03-28T06:40:49.795Z,4.80
2019-03-28T06:43:18.483Z,5.00
2019-03-28T06:45:46.932Z,5.10
2019-03-28T06:48:15.701Z,5.20
2019-03-28T06:50:44.137Z,5.30
2019-03-28T06:53:12.854Z,5.40
2019-03-28T06:55:41.585Z,5.50
2019-03-28T06:58:10.092Z,5.60
2019-03-28T07:00:38.531Z,5.70
2019-03-28T07:03:08.440Z,5.70
2019-03-28T07:05:36.883Z,5.80
2019-03-28T07:08:05.583Z,5.90
2019-03-28T07:10:34.338Z,6.00
2019-03-28T07:13:02.817Z,6.10
2019-03-28T07:15:31.244Z,6.20
2019-03-28T07:17:59.694Z,6.30
2019-03-28T07:20:28.389Z,6.40
2019-03-28T07:22:56.834Z,6.40
2019-03-28T07:25:25.723Z,6.40
2019-03-28T07:27:54.309Z,6.40
2019-03-28T07:30:22.830Z,6.50
2019-03-28T07:32:51.537Z,6.50
2019-03-28T07:35:20.249Z,6.50
2019-03-28T07:37:48.681Z,6.60
2019-03-28T07:40:17.472Z,6.70
2019-03-28T07:42:45.901Z,6.70
2019-03-28T07:45:14.476Z,6.80
2019-03-28T07:47:42.924Z,6.90
2019-03-28T07:50:11.906Z,7.00
2019-03-28T07:52:40.450Z,7.10
2019-03-28T07:55:09.490Z,7.10
2019-03-28T07:57:37.949Z,7.40
2019-03-28T08:00:09.290Z,7.40
2019-03-28T08:02:37.746Z,7.50
2019-03-28T08:05:08.482Z,7.50
2019-03-28T08:07:44.873Z,7.70
2019-03-28T08:10:09.026Z,7.80
2019-03-28T08:12:37.604Z,7.90
2019-03-28T08:15:08.287Z,8.00
2019-03-28T08:17:36.967Z,8.20
2019-03-28T08:20:08.365Z,8.20
2019-03-28T08:22:36.850Z,8.30
2019-03-28T08:25:11.753Z,8.50
2019-03-28T08:27:39.281Z,8.60
2019-03-28T08:30:32.268Z,8.70
2019-03-28T08:33:00.739Z,8.90
2019-03-28T08:35:30.482Z,9.20
2019-03-28T08:37:59.417Z,9.40
2019-03-28T08:40:39.839Z,9.70
2019-03-28T08:43:08.738Z,9.90
2019-03-28T08:45:37.279Z,10.20
2019-03-28T08:48:06.091Z,10.50
2019-03-28T08:50:34.563Z,10.80
2019-03-28T08:53:03.145Z,11.00
2019-03-28T08:55:31.925Z,11.20
2019-03-28T08:58:00.431Z,11.50
2019-03-28T09:00:34.952Z,11.70
2019-03-28T09:02:59.239Z,11.90
2019-03-28T09:05:27.728Z,12.10
2019-03-28T09:07:56.805Z,12.40
2019-03-28T09:10:31.021Z,12.70
2019-03-28T09:12:59.735Z,14.00
2019-03-28T09:15:28.429Z,16.50
2019-03-28T09:18:00.098Z,19.20
2019-03-28T09:23:13.797Z,22.80
2019-03-28T09:25:42.228Z,23.80
2019-03-28T09:28:10.681Z,24.10
2019-03-28T09:30:48.844Z,24.90
2019-03-28T09:33:11.785Z,25.30
2019-03-28T09:35:40.324Z,25.90
2019-03-28T09:38:08.858Z,25.70
2019-03-28T09:40:37.390Z,25.10
2019-03-28T09:43:06.079Z,24.20
2019-03-28T09:45:34.610Z,23.50
2019-03-28T09:48:03.376Z,22.90
2019-03-28T09:50:31.835Z,22.20
2019-03-28T09:53:00.795Z,21.70
2019-03-28T09:55:29.572Z,21.10
2019-03-28T09:57:58.284Z,20.60
2019-03-28T10:00:26.974Z,20.50
2019-03-28T10:02:55.571Z,20.30
2019-03-28T10:05:24.264Z,19.10
2019-03-28T10:07:52.782Z,18.60
2019-03-28T10:10:21.207Z,18.00
2019-03-28T10:12:49.918Z,17.50
2019-03-28T10:15:18.348Z,17.20
2019-03-28T10:17:47.082Z,17.10
2019-03-28T10:20:15.579Z,17.00
2019-03-28T10:22:44.017Z,16.60
2019-03-28T10:25:13.832Z,16.40
2019-03-28T10:27:43.259Z,15.80
2019-03-28T10:30:12.448Z,16.20
2019-03-28T10:32:40.961Z,16.30
2019-03-28T10:35:11.030Z,16.40
2019-03-28T10:37:39.520Z,15.90
2019-03-28T10:40:08.361Z,16.20
2019-03-28T10:42:37.183Z,16.20
2019-03-28T10:45:07.381Z,15.50
2019-03-28T10:47:35.945Z,14.80
2019-03-28T10:50:06.095Z,14.70
2019-03-28T10:52:34.636Z,15.20
2019-03-28T10:55:03.556Z,15.70
2019-03-28T10:57:32.463Z,15.70
2019-03-28T11:00:01.151Z,15.20
2019-03-28T11:02:29.664Z,14.70
2019-03-28T11:04:58.227Z,14.60
2019-03-28T11:07:26.789Z,14.60
2019-03-28T11:09:55.624Z,15.20
2019-03-28T11:12:24.413Z,15.50
2019-03-28T11:14:53.320Z,15.90
2019-03-28T11:17:23.411Z,15.90
2019-03-28T11:19:55.705Z,16.00
2019-03-28T11:22:22.763Z,16.10
2019-03-28T11:24:51.334Z,15.90
2019-03-28T11:27:19.881Z,16.10
2019-03-28T11:29:48.459Z,16.60
2019-03-28T11:32:21.725Z,16.70
2019-03-28T11:34:50.302Z,16.60
2019-03-28T11:37:25.896Z,16.50
2019-03-28T11:39:49.062Z,16.00
2019-03-28T11:42:17.917Z,15.90
2019-03-28T11:44:46.782Z,16.40
2019-03-28T11:47:15.337Z,16.90
2019-03-28T11:49:58.893Z,17.20
2019-03-28T11:52:27.445Z,17.40
2019-03-28T11:54:55.987Z,17.40
2019-03-28T11:57:24.481Z,17.00
2019-03-28T11:59:53.300Z,16.40
2019-03-28T12:02:25.224Z,16.10
2019-03-28T12:04:52.382Z,15.90
2019-03-28T12:07:20.860Z,15.70
2019-03-28T12:09:49.331Z,15.70
2019-03-28T12:12:17.825Z,16.50
2019-03-28T12:14:46.638Z,16.50
2019-03-28T12:17:15.198Z,16.80
2019-03-28T12:19:43.758Z,17.40
2019-03-28T12:22:12.320Z,18.00
2019-03-28T12:24:40.782Z,17.70
2019-03-28T12:27:09.293Z,17.10
2019-03-28T12:29:37.759Z,17.10
2019-03-28T12:32:14.129Z,17.30
2019-03-28T12:34:38.952Z,17.20
2019-03-28T12:37:07.497Z,16.70
2019-03-28T12:39:35.977Z,16.60
2019-03-28T12:42:04.448Z,16.50
2019-03-28T12:44:32.936Z,16.60
2019-03-28T12:47:01.684Z,16.30
2019-03-28T12:49:30.251Z,16.20
2019-03-28T12:51:58.789Z,16.50
2019-03-28T12:54:28.515Z,16.60
2019-03-28T12:56:58.263Z,17.00
2019-03-28T12:59:26.964Z,17.30
2019-03-28T13:01:55.714Z,18.20
2019-03-28T13:04:24.548Z,18.40
2019-03-28T13:06:53.033Z,18.00
2019-03-28T13:09:21.601Z,18.40
2019-03-28T13:11:50.425Z,18.30
2019-03-28T13:14:18.971Z,17.90
2019-03-28T13:16:47.820Z,17.70
2019-03-28T13:19:16.293Z,17.30
2019-03-28T13:21:45.120Z,17.40
2019-03-28T13:24:13.593Z,18.10
2019-03-28T13:26:42.161Z,18.40
2019-03-28T13:29:11.120Z,18.20
2019-03-28T13:31:40.039Z,17.80
2019-03-28T13:34:08.961Z,17.10
2019-03-28T13:36:37.452Z,16.60
2019-03-28T13:39:07.275Z,16.10
2019-03-28T13:41:36.115Z,15.80
2019-03-28T13:44:04.597Z,15.70
2019-03-28T13:46:33.167Z,15.50
2019-03-28T13:49:02.898Z,15.50
2019-03-28T13:51:31.725Z,15.30
2019-03-28T13:54:01.454Z,15.20
2019-03-28T13:56:30.266Z,15.00
2019-03-28T13:58:58.764Z,15.00
2019-03-28T14:01:27.237Z,15.10
2019-03-28T14:03:55.807Z,15.20
2019-03-28T14:06:24.603Z,15.20
2019-03-28T14:08:53.163Z,15.30
2019-03-28T14:11:21.652Z,15.40
2019-03-28T14:13:50.145Z,15.30
2019-03-28T14:16:19.131Z,15.20
2019-03-28T14:18:47.762Z,15.30
2019-03-28T14:21:16.582Z,15.20
2019-03-28T14:23:45.336Z,15.10
2019-03-28T14:26:13.909Z,15.10
2019-03-28T14:28:42.459Z,15.00
2019-03-28T14:31:11.292Z,14.90
2019-03-28T14:33:40.041Z,14.70
2019-03-28T14:36:08.614Z,14.50
2019-03-28T14:38:37.592Z,14.30
2019-03-28T14:41:06.352Z,14.10
2019-03-28T14:43:34.839Z,13.90
2019-03-28T14:46:03.473Z,13.80
2019-03-28T14:48:31.952Z,13.70
2019-03-28T14:51:00.540Z,13.80
2019-03-28T14:53:29.421Z,13.90
2019-03-28T14:55:58.452Z,14.40
2019-03-28T14:58:29.470Z,15.50
2019-03-28T15:00:58.304Z,16.50
2019-03-28T15:03:27.671Z,16.90
2019-03-28T15:05:56.306Z,17.30
2019-03-28T15:08:24.804Z,17.00
2019-03-28T15:10:53.359Z,16.80
2019-03-28T15:13:21.857Z,17.20
2019-03-28T15:15:50.708Z,17.30
2019-03-28T15:18:19.526Z,17.20
2019-03-28T15:20:48.101Z,17.20
2019-03-28T15:23:20.898Z,17.30
2019-03-28T15:25:49.787Z,17.30
2019-03-28T15:28:18.332Z,17.30
2019-03-28T15:30:48.532Z,17.80
2019-03-28T15:33:17.378Z,19.00
2019-03-28T15:35:45.945Z,20.30
2019-03-28T15:38:14.494Z,20.50
2019-03-28T15:40:48.960Z,19.10
2019-03-28T15:43:17.516Z,17.80
2019-03-28T15:45:46.088Z,17.80
2019-03-28T15:48:14.921Z,18.20
2019-03-28T15:50:43.720Z,18.00
2019-03-28T15:53:12.640Z,18.10
2019-03-28T15:55:41.394Z,17.90
2019-03-28T15:58:22.493Z,18.30
2019-03-28T16:00:41.598Z,18.80
2019-03-28T16:03:10.323Z,19.30
2019-03-28T16:05:39.063Z,19.50
2019-03-28T16:08:07.707Z,19.00
2019-03-28T16:10:36.524Z,18.10
2019-03-28T16:13:05.304Z,17.70
2019-03-28T16:15:33.782Z,17.50
2019-03-28T16:18:02.615Z,17.30
2019-03-28T16:20:31.409Z,16.90
2019-03-28T16:22:59.994Z,16.50
2019-03-28T16:25:28.535Z,16.20
2019-03-28T16:27:57.429Z,16.00
2019-03-28T16:30:38.450Z,15.90
2019-03-28T16:33:07.236Z,15.80
2019-03-28T16:35:35.801Z,15.70
2019-03-28T16:38:04.345Z,15.60
2019-03-28T16:40:32.908Z,15.60
2019-03-28T16:43:01.387Z,15.60
2019-03-28T16:45:34.468Z,15.60
2019-03-28T16:48:03.007Z,15.30
2019-03-28T16:50:31.835Z,15.00
2019-03-28T16:53:00.316Z,14.60
2019-03-28T16:55:28.910Z,14.20
2019-03-28T16:57:57.805Z,13.80
2019-03-28T17:00:34.424Z,13.50
2019-03-28T17:03:03.175Z,13.30
2019-03-28T17:05:34.621Z,13.10
2019-03-28T17:08:04.212Z,12.90
2019-03-28T17:10:47.209Z,12.80
2019-03-28T17:13:16.518Z,12.60
2019-03-28T17:15:45.201Z,12.50
2019-03-28T17:18:13.966Z,12.30
2019-03-28T17:20:42.509Z,12.20
2019-03-28T17:23:11.369Z,12.00
2019-03-28T17:25:39.913Z,12.00
2019-03-28T17:28:08.753Z,11.90
2019-03-28T17:30:37.307Z,11.80
2019-03-28T17:33:06.166Z,11.70
2019-03-28T17:35:34.711Z,11.60
2019-03-28T17:38:09.311Z,11.50
2019-03-28T17:40:37.868Z,11.40
2019-03-28T17:43:06.489Z,11.30
2019-03-28T17:45:35.104Z,11.30
2019-03-28T17:48:03.732Z,11.20
2019-03-28T17:50:32.301Z,11.20
2019-03-28T17:53:01.163Z,11.20
2019-03-28T17:55:30.066Z,11.10
2019-03-28T17:57:58.818Z,11.00
2019-03-28T18:00:28.187Z,10.90
2019-03-28T18:03:08.328Z,10.80
2019-03-28T18:05:27.337Z,10.80
2019-03-28T18:07:56.199Z,10.70
2019-03-28T18:10:24.761Z,10.70
2019-03-28T18:12:53.332Z,10.60
2019-03-28T18:15:21.891Z,10.60
2019-03-28T18:17:51.019Z,10.60
2019-03-28T18:20:20.235Z,10.60
2019-03-28T18:22:49.068Z,10.50
2019-03-28T18:25:17.730Z,10.50
2019-03-28T18:27:46.280Z,10.40
2019-03-28T18:30:15.109Z,10.40
2019-03-28T18:32:44.769Z,10.40
2019-03-28T18:35:13.755Z,10.30
2019-03-28T18:37:42.305Z,10.30
2019-03-28T18:40:11.132Z,10.30
2019-03-28T18:42:39.879Z,10.20
2019-03-28T18:45:08.919Z,10.20
2019-03-28T18:47:37.464Z,10.20
2019-03-28T18:50:07.669Z,10.20
2019-03-28T18:52:36.552Z,10.10
2019-03-28T18:55:07.683Z,10.00
2019-03-28T18:57:36.399Z,10.00
2019-03-28T19:00:09.070Z,10.00
2019-03-28T19:02:38.017Z,10.00
2019-03-28T19:05:19.212Z,9.90
2019-03-28T19:07:37.974Z,9.90
2019-03-28T19:10:07.723Z,9.80
2019-03-28T19:12:36.667Z,9.80
2019-03-28T19:15:07.120Z,9.80
2019-03-28T19:17:36.116Z,9.80
2019-03-28T19:20:07.063Z,9.70
2019-03-28T19:22:38.660Z,9.70
2019-03-28T19:25:09.345Z,9.60
2019-03-28T19:27:39.887Z,9.60
2019-03-28T19:30:10.960Z,9.50
2019-03-28T19:32:39.802Z,9.60
2019-03-28T19:35:09.960Z,9.60
2019-03-28T19:37:39.001Z,9.50
2019-03-28T19:40:09.154Z,9.50
2019-03-28T19:42:38.684Z,9.50
2019-03-28T19:45:08.146Z,9.50
2019-03-28T19:47:36.959Z,9.40
2019-03-28T19:50:11.033Z,9.40
2019-03-28T19:52:39.776Z,9.30
2019-03-28T19:55:10.353Z,9.30
2019-03-28T19:57:39.008Z,9.30
2019-03-28T20:00:07.977Z,9.20
2019-03-28T20:02:36.772Z,9.20
2019-03-28T20:05:07.008Z,9.20
2019-03-28T20:07:35.741Z,9.10
2019-03-28T20:10:15.818Z,9.10
2019-03-28T20:12:35.944Z,9.10
2019-03-28T20:15:08.987Z,9.10
2019-03-28T20:17:37.787Z,9.10
2019-03-28T20:20:08.097Z,9.10
2019-03-28T20:22:36.719Z,9.00
2019-03-28T20:25:08.292Z,9.00
2019-03-28T20:27:38.323Z,9.00
2019-03-28T20:30:07.916Z,8.90
2019-03-28T20:32:37.844Z,8.80
2019-03-28T20:35:10.299Z,8.80
2019-03-28T20:37:38.141Z,8.80
2019-03-28T20:40:08.020Z,8.80
2019-03-28T20:42:37.196Z,8.70
2019-03-28T20:45:07.567Z,8.70
2019-03-28T20:47:36.407Z,8.70
2019-03-28T20:50:09.141Z,8.60
2019-03-28T20:52:37.625Z,8.50
2019-03-28T20:55:07.479Z,8.50
2019-03-28T20:57:36.239Z,8.50
2019-03-28T21:00:08.580Z,8.50
2019-03-28T21:02:36.644Z,8.50
2019-03-28T21:05:06.926Z,8.50
2019-03-28T21:07:35.478Z,8.50
2019-03-28T21:10:07.129Z,8.40
2019-03-28T21:12:35.745Z,8.40
2019-03-28T21:15:07.455Z,8.50
2019-03-28T21:17:36.196Z,8.40
2019-03-28T21:20:06.784Z,8.40
2019-03-28T21:22:35.589Z,8.40
2019-03-28T21:25:06.073Z,8.40
2019-03-28T21:27:34.826Z,8.40
2019-03-28T21:30:04.054Z,8.30
2019-03-28T21:32:32.805Z,8.30
2019-03-28T21:35:01.225Z,8.30
2019-03-28T21:37:29.680Z,8.20
2019-03-28T21:39:58.172Z,8.20
2019-03-28T21:42:26.626Z,8.20
2019-03-28T21:44:58.230Z,8.20
2019-03-28T21:47:25.471Z,8.10
2019-03-28T21:49:53.900Z,8.10
2019-03-28T21:52:22.351Z,8.20
2019-03-28T21:54:51.043Z,8.10
2019-03-28T21:57:19.570Z,8.20
2019-03-28T21:59:48.818Z,8.20
2019-03-28T22:02:17.432Z,8.20
2019-03-28T22:04:46.139Z,8.10
2019-03-28T22:07:15.091Z,8.00
2019-03-28T22:09:43.835Z,8.00
2019-03-28T22:12:12.271Z,8.00
2019-03-28T22:14:40.712Z,8.00
2019-03-28T22:17:09.400Z,7.90
2019-03-28T22:19:37.846Z,7.90
2019-03-28T22:22:07.935Z,8.00
2019-03-28T22:24:39.022Z,7.90
2019-03-28T22:27:06.556Z,7.90
2019-03-28T22:29:35.241Z,7.80
2019-03-28T22:32:03.689Z,7.80
2019-03-28T22:34:32.110Z,7.80
2019-03-28T22:37:03.443Z,7.80
2019-03-28T22:39:31.024Z,7.80
2019-03-28T22:41:59.542Z,7.80
2019-03-28T22:44:27.983Z,7.70
2019-03-28T22:46:56.692Z,7.70
2019-03-28T22:49:25.120Z,7.70
2019-03-28T22:51:53.830Z,7.60
2019-03-28T22:54:22.527Z,7.70
2019-03-28T22:56:50.969Z,7.70
2019-03-28T22:59:19.417Z,7.60
2019-03-28T23:01:48.103Z,7.60
2019-03-28T23:04:16.544Z,7.60
2019-03-28T23:06:44.984Z,7.60
2019-03-28T23:09:13.436Z,7.60
2019-03-28T23:11:47.609Z,7.50
2019-03-28T23:14:16.054Z,7.50
2019-03-28T23:16:44.728Z,7.40
2019-03-28T23:19:13.237Z,7.40
2019-03-28T23:21:41.934Z,7.30
2019-03-28T23:24:10.686Z,7.40
2019-03-28T23:26:39.119Z,7.30
2019-03-28T23:29:07.581Z,7.30
2019-03-28T23:31:36.284Z,7.20
2019-03-28T23:34:04.733Z,7.30
2019-03-28T23:36:33.181Z,7.30
2019-03-28T23:39:01.671Z,7.30
2019-03-28T23:41:30.113Z,7.30
2019-03-28T23:44:04.451Z,7.30
2019-03-28T23:46:33.168Z,7.30
2019-03-28T23:49:01.591Z,7.30
2019-03-28T23:51:30.090Z,7.30
2019-03-28T23:53:58.764Z,7.30
2019-03-28T23:56:27.455Z,7.30
2019-03-28T23:58:56.152Z,7.30
